Time;durP1;ratioP1;P1;durP2;ratioP2;P2;SDS_P1;SDS_P2;PMS_P1;PMS_P2;Temp;Humidity;BMP_temperature;BMP_pressure;BME280_temperature;BME280_humidity;BME280_pressure;Samples;Min_cycle;Max_cycle;Signal;HPM_P1;HPM_P2
2021/04/06 00:01:18;;;;;;;8.65;6.15;;;;;;;;;;3576705;40;20755;-66
2021/04/06 00:03:47;;;;;;;5.90;5.05;;;;;;;;;;3573012;40;20451;-66
2021/04/06 00:06:14;;;;;;;6.93;5.20;;;;;;;;;;3576197;40;20485;-65
2021/04/06 00:08:40;;;;;;;8.32;5.72;;;;;;;;;;3577274;40;20469;-66
2021/04/06 00:11:07;;;;;;;6.10;5.43;;;;;;;;;;3577005;40;20414;-66
2021/04/06 00:13:34;;;;;;;6.45;5.25;;;;;;;;;;3579683;40;20648;-67
2021/04/06 00:16:02;;;;;;;6.07;5.47;;;;;;;;;;3577376;40;20741;-66
2021/04/06 00:18:28;;;;;;;7.78;5.78;;;;;;;;;;3562808;40;20405;-66
2021/04/06 00:20:58;;;;;;;6.45;5.70;;;;;;;;;;3578846;40;20394;-66
2021/04/06 00:23:25;;;;;;;6.32;5.38;;;;;;;;;;3577060;40;20630;-66
2021/04/06 00:25:52;;;;;;;6.78;5.75;;;;;;;;;;3570676;40;20398;-65
2021/04/06 00:28:20;;;;;;;7.05;5.80;;;;;;;;;;3583779;40;20391;-66
2021/04/06 00:30:49;;;;;;;5.80;5.20;;;;;;;;;;3566898;40;20624;-66
2021/04/06 00:33:17;;;;;;;6.07;5.47;;;;;;;;;;3577195;40;20392;-66
2021/04/06 00:35:50;;;;;;;8.43;6.75;;;;;;;;;;3578666;40;20376;-66
2021/04/06 00:38:18;;;;;;;9.40;7.05;;;;;;;;;;3577285;40;20669;-66
2021/04/06 00:40:45;;;;;;;7.90;6.40;;;;;;;;;;3578366;40;20387;-66
2021/04/06 00:43:12;;;;;;;6.53;5.82;;;;;;;;;;3575546;40;20434;-66
2021/04/06 00:45:40;;;;;;;8.23;6.35;;;;;;;;;;3574360;40;20414;-66
2021/04/06 00:48:10;;;;;;;5.93;5.32;;;;;;;;;;3567933;40;20449;-66
2021/04/06 00:50:37;;;;;;;9.02;5.60;;;;;;;;;;3567567;40;20480;-66
2021/04/06 00:53:03;;;;;;;8.63;6.32;;;;;;;;;;3568564;40;20404;-68
2021/04/06 00:55:34;;;;;;;9.52;6.68;;;;;;;;;;3570057;40;20423;-66
2021/04/06 00:58:00;;;;;;;7.22;5.75;;;;;;;;;;3569036;40;20691;-66
2021/04/06 01:00:28;;;;;;;6.40;5.17;;;;;;;;;;3566942;40;20568;-66
2021/04/06 01:02:59;;;;;;;6.43;5.22;;;;;;;;;;3566673;40;20402;-66
2021/04/06 01:05:25;;;;;;;9.27;5.38;;;;;;;;;;3568572;40;20386;-66
2021/04/06 01:07:52;;;;;;;6.35;5.10;;;;;;;;;;3562124;40;20383;-66
2021/04/06 01:10:19;;;;;;;6.97;6.03;;;;;;;;;;3567095;40;20398;-66
2021/04/06 01:12:46;;;;;;;9.45;7.30;;;;;;;;;;3564116;40;20410;-66
2021/04/06 01:15:13;;;;;;;6.93;5.97;;;;;;;;;;3566881;40;20429;-66
2021/04/06 01:17:40;;;;;;;7.20;6.35;;;;;;;;;;3559971;40;20427;-66
2021/04/06 01:20:09;;;;;;;9.18;7.78;;;;;;;;;;3557573;40;20667;-66
2021/04/06 01:22:36;;;;;;;9.90;7.43;;;;;;;;;;3557376;40;20397;-66
2021/04/06 01:25:03;;;;;;;8.10;6.18;;;;;;;;;;3566860;40;20382;-66
2021/04/06 01:27:30;;;;;;;6.93;6.05;;;;;;;;;;3566938;40;20494;-65
2021/04/06 01:29:57;;;;;;;7.95;6.75;;;;;;;;;;3557551;40;20423;-66
2021/04/06 01:32:24;;;;;;;8.52;7.10;;;;;;;;;;3559809;40;20403;-66
2021/04/06 01:34:51;;;;;;;7.07;5.85;;;;;;;;;;3566221;40;20363;-66
2021/04/06 01:37:19;;;;;;;6.78;5.85;;;;;;;;;;3566782;40;20393;-65
2021/04/06 01:39:48;;;;;;;6.75;6.13;;;;;;;;;;3569302;40;20391;-66
2021/04/06 01:42:15;;;;;;;6.93;6.22;;;;;;;;;;3570793;40;20459;-66
2021/04/06 01:44:45;;;;;;;7.65;5.97;;;;;;;;;;3566680;40;20705;-66
2021/04/06 01:47:14;;;;;;;7.97;6.00;;;;;;;;;;3557611;40;20653;-66
2021/04/06 01:49:40;;;;;;;6.43;5.50;;;;;;;;;;3573652;40;20405;-69
2021/04/06 01:52:07;;;;;;;5.40;4.70;;;;;;;;;;3566748;40;20377;-65
2021/04/06 01:54:35;;;;;;;6.20;5.28;;;;;;;;;;3573565;40;20392;-66
2021/04/06 01:57:11;;;;;;;8.43;6.25;;;;;;;;;;3566662;40;20400;-66
2021/04/06 01:59:42;;;;;;;7.60;5.93;;;;;;;;;;3573514;40;20688;-66
2021/04/06 02:02:09;;;;;;;10.75;8.30;;;;;;;;;;3566437;40;20722;-66
2021/04/06 02:04:35;;;;;;;9.93;8.35;;;;;;;;;;3559765;40;20433;-65
2021/04/06 02:07:03;;;;;;;8.90;8.00;;;;;;;;;;3557109;40;20775;-66
2021/04/06 02:09:30;;;;;;;9.05;6.93;;;;;;;;;;3560686;40;20383;-65
2021/04/06 02:11:58;;;;;;;9.67;7.50;;;;;;;;;;3559079;40;20387;-69
2021/04/06 02:14:24;;;;;;;7.38;6.63;;;;;;;;;;3557145;40;20436;-70
2021/04/06 02:16:52;;;;;;;8.18;7.32;;;;;;;;;;3565625;40;20378;-71
2021/04/06 02:19:26;;;;;;;10.68;8.38;;;;;;;;;;3557304;40;20405;-69
2021/04/06 02:21:53;;;;;;;7.85;7.03;;;;;;;;;;3556964;40;20402;-71
2021/04/06 02:24:31;;;;;;;8.00;6.67;;;;;;;;;;3557642;40;20394;-71
2021/04/06 02:27:05;;;;;;;7.68;6.22;;;;;;;;;;3566719;40;20370;-70
2021/04/06 02:29:36;;;;;;;7.70;6.20;;;;;;;;;;3560595;40;20374;-71
2021/04/06 02:32:05;;;;;;;6.85;6.10;;;;;;;;;;3573812;40;20415;-71
2021/04/06 02:34:35;;;;;;;7.55;6.15;;;;;;;;;;3565109;40;20382;-66
2021/04/06 02:37:02;;;;;;;10.70;8.07;;;;;;;;;;3573023;40;20380;-63
2021/04/06 02:39:28;;;;;;;10.27;8.65;;;4.60;99.90;;;;;;3559811;40;20395;-64
2021/04/06 02:41:54;;;;;;;9.30;8.10;;;;;;;;;;3561014;40;20401;-63
2021/04/06 02:44:20;;;;;;;7.33;6.63;;;4.30;99.90;;;;;;3566053;40;20386;-63
2021/04/06 02:46:51;;;;;;;7.35;6.22;;;4.40;99.90;;;;;;3566091;40;20409;-63
2021/04/06 02:49:18;;;;;;;11.45;7.65;;;4.50;99.90;;;;;;3566083;40;20396;-64
2021/04/06 02:51:45;;;;;;;8.48;6.75;;;4.40;99.90;;;;;;3561794;40;20417;-63
2021/04/06 02:54:14;;;;;;;10.02;8.85;;;4.40;99.90;;;;;;3562438;40;20381;-63
2021/04/06 02:56:40;;;;;;;10.00;8.02;;;4.30;99.90;;;;;;3565989;40;20425;-63
2021/04/06 02:59:17;;;;;;;9.63;7.28;;;4.40;99.90;;;;;;3555685;40;20787;-63
2021/04/06 03:01:44;;;;;;;9.55;7.65;;;4.70;99.90;;;;;;3571326;40;20374;-63
2021/04/06 03:04:22;;;;;;;7.70;6.30;;;;;;;;;;3556775;40;20401;-64
2021/04/06 03:06:49;;;;;;;8.73;6.72;;;;;;;;;;3571463;40;20369;-64
2021/04/06 03:09:15;;;;;;;7.28;5.93;;;;;;;;;;3566273;40;20384;-64
2021/04/06 03:11:42;;;;;;;8.75;7.28;;;;;;;;;;3567227;40;20385;-63
2021/04/06 03:14:08;;;;;;;6.95;6.25;;;;;;;;;;3572846;40;20390;-63
2021/04/06 03:16:36;;;;;;;7.80;6.20;;;;;;;;;;3566275;40;20378;-63
2021/04/06 03:19:03;;;;;;;7.72;6.55;;;;;;;;;;3556039;40;20398;-64
2021/04/06 03:21:32;;;;;;;8.20;6.68;;;;;;;;;;3556923;40;20387;-63
2021/04/06 03:23:59;;;;;;;8.30;5.82;;;;;;;;;;3564039;40;20462;-66
2021/04/06 03:26:25;;;;;;;7.20;6.50;;;;;;;;;;3566928;40;20457;-63
2021/04/06 03:28:51;;;;;;;9.30;6.90;;;;;;;;;;3557817;40;20690;-63
2021/04/06 03:31:18;;;;;;;9.27;7.45;;;;;;;;;;3564650;40;20433;-63
2021/04/06 03:33:45;;;;;;;8.87;7.10;;;;;;;;;;3565935;40;20771;-63
2021/04/06 03:36:19;;;;;;;10.57;8.80;;;;;;;;;;3564350;40;20408;-63
2021/04/06 03:38:46;;;;;;;13.02;8.90;;;;;;;;;;3556894;40;20368;-63
2021/04/06 03:41:12;;;;;;;8.45;6.82;;;;;;;;;;3564492;40;20459;-64
2021/04/06 03:43:40;;;;;;;8.80;6.97;;;;;;;;;;3566040;40;20501;-63
2021/04/06 03:46:06;;;;;;;11.35;7.97;;;;;;;;;;3565875;40;20758;-63
2021/04/06 03:48:33;;;;;;;7.20;6.50;;;;;;;;;;3560715;40;20377;-63
2021/04/06 03:51:00;;;;;;;14.00;9.10;;;;;;;;;;3565962;40;20473;-63
2021/04/06 03:53:36;;;;;;;9.00;8.10;;;;;;;;;;3559708;40;20387;-63
2021/04/06 03:56:04;;;;;;;9.33;7.67;;;;;;;;;;3565689;40;20366;-63
2021/04/06 03:58:35;;;;;;;9.13;7.53;;;;;;;;;;3571686;40;20739;-64
2021/04/06 04:01:01;;;;;;;8.00;6.82;;;;;;;;;;3567242;40;20374;-64
2021/04/06 04:03:27;;;;;;;10.32;7.45;;;;;;;;;;3569364;40;20392;-63
2021/04/06 04:05:54;;;;;;;9.85;6.93;;;;;;;;;;3566907;40;20382;-64
2021/04/06 04:08:20;;;;;;;11.05;8.43;;;;;;;;;;3572450;40;20413;-63
2021/04/06 04:10:46;;;;;;;9.57;6.70;;;;;;;;;;3566947;40;20399;-63
2021/04/06 04:13:13;;;;;;;10.70;7.70;;;;;;;;;;3567298;40;20381;-63
2021/04/06 04:15:39;;;;;;;10.32;8.02;;;;;;;;;;3567903;40;20455;-63
2021/04/06 04:18:06;;;;;;;10.52;7.80;;;;;;;;;;3558013;40;20405;-63
2021/04/06 04:20:32;;;;;;;23.52;15.93;;;;;;;;;;3561472;40;20631;-63
2021/04/06 04:22:58;;;;;;;20.20;15.15;;;;;;;;;;3571129;40;20425;-63
2021/04/06 04:25:24;;;;;;;22.13;16.50;;;;;;;;;;3577232;40;20384;-63
2021/04/06 04:27:51;;;;;;;20.45;14.32;;;;;;;;;;3570071;40;20384;-63
2021/04/06 04:30:35;;;;;;;20.27;14.73;;;;;;;;;;3571357;40;20657;-63
2021/04/06 04:33:02;;;;;;;28.70;19.88;;;;;;;;;;3558019;40;20399;-63
2021/04/06 04:35:29;;;;;;;21.20;15.88;;;;;;;;;;3559915;40;20397;-63
2021/04/06 04:37:56;;;;;;;21.52;15.48;;;;;;;;;;3567238;40;20385;-63
2021/04/06 04:40:22;;;;;;;21.70;15.90;;;;;;;;;;3571861;40;20389;-63
2021/04/06 04:42:50;;;;;;;18.13;13.25;;;;;;;;;;3569390;40;20385;-63
2021/04/06 04:45:16;;;;;;;16.90;12.45;;;;;;;;;;3567019;40;20402;-63
2021/04/06 04:47:44;;;;;;;16.20;12.18;;;;;;;;;;3567216;40;20378;-63
2021/04/06 04:50:10;;;;;;;16.63;12.82;;;;;;;;;;3566910;40;20461;-63
2021/04/06 04:52:37;;;;;;;12.73;10.32;;;;;;;;;;3561240;40;20395;-63
2021/04/06 04:55:03;;;;;;;5.60;2.90;;;;;;;;;;3566801;40;20483;-63
2021/04/06 04:57:29;;;;;;;1.58;0.20;;;;;;;;;;3562235;40;20396;-63
2021/04/06 04:59:56;;;;;;;1.30;0.10;;;;;;;;;;3566203;40;20401;-65
2021/04/06 05:02:22;;;;;;;0.60;0.10;;;;;;;;;;3557900;40;20396;-64
2021/04/06 05:04:49;;;;;;;0.35;0.10;;;;;;;;;;3569301;40;20796;-64
2021/04/06 05:07:15;;;;;;;1.20;0.10;;;;;;;;;;3565489;40;20441;-63
2021/04/06 05:09:41;;;;;;;1.80;0.20;;;;;;;;;;3565776;40;20634;-63
2021/04/06 05:12:08;;;;;;;0.90;0.10;;;;;;;;;;3555786;40;20745;-63
2021/04/06 05:14:34;;;;;;;0.70;0.20;;;;;;;;;;3566983;40;20380;-63
2021/04/06 05:17:00;;;;;;;1.40;0.13;;;9.00;64.20;;;;;;3568058;40;20378;-63
2021/04/06 05:19:26;;;;;;;0.80;0.10;;;9.50;72.00;;;;;;3570382;40;20513;-63
2021/04/06 05:21:53;;;;;;;1.25;0.10;;;9.40;59.90;;;;;;3567023;40;20396;-64
2021/04/06 05:24:19;;;;;;;0.40;0.20;;;9.60;57.70;;;;;;3561098;40;20409;-64
2021/04/06 05:26:45;;;;;;;0.87;0.10;;;;;;;;;;3567083;40;20454;-63
2021/04/06 05:29:12;;;;;;;1.15;0.40;;;;;;;;;;3560624;40;20475;-64
2021/04/06 05:31:38;;;;;;;0.90;0.10;;;;;;;;;;3566492;40;20495;-63
2021/04/06 05:34:04;;;;;;;2.90;0.10;;;;;;;;;;3564969;40;20491;-64
2021/04/06 05:36:30;;;;;;;1.75;0.20;;;;;;;;;;3565414;40;20471;-64
2021/04/06 05:38:57;;;;;;;0.30;0.10;;;;;;;;;;3569307;40;20385;-63
2021/04/06 05:41:24;;;;;;;2.03;0.10;;;;;;;;;;3567236;40;20433;-64
2021/04/06 05:43:56;;;;;;;3.08;0.28;;;9.70;56.40;;;;;;3566012;40;20392;-63
2021/04/06 05:46:23;;;;;;;1.85;0.22;;;10.70;48.30;;;;;;3559584;40;20784;-64
2021/04/06 05:48:49;;;;;;;1.38;0.10;;;10.70;45.90;;;;;;3566995;40;20520;-63
2021/04/06 05:51:16;;;;;;;1.25;0.10;;;;;;;;;;3566638;40;20806;-64
2021/04/06 05:53:43;;;;;;;2.67;0.10;;;;;;;;;;3566709;40;20393;-67
2021/04/06 05:56:10;;;;;;;0.70;0.08;;;;;;;;;;3569584;40;20392;-63
2021/04/06 05:58:36;;;;;;;0.65;0.20;;;;;;;;;;3571172;40;20380;-64
2021/04/06 06:01:02;;;;;;;1.00;0.10;;;;;;;;;;3562791;40;20383;-65
2021/04/06 06:03:28;;;;;;;0.68;0.10;;;;;;;;;;3571002;40;20412;-64
2021/04/06 06:05:54;;;;;;;1.90;0.10;;;10.80;44.30;;;;;;3564884;40;20392;-64
2021/04/06 06:08:21;;;;;;;0.75;0.10;;;11.20;42.80;;;;;;3558873;40;20439;-64
2021/04/06 06:10:59;;;;;;;0.80;0.10;;;11.10;42.50;;;;;;3556590;40;20476;-65
2021/04/06 06:13:28;;;;;;;0.57;0.10;;;11.20;41.20;;;;;;3561496;40;20451;-64
2021/04/06 06:16:13;;;;;;;1.25;0.10;;;11.30;41.10;;;;;;3560253;40;20419;-64
2021/04/06 06:18:59;;;;;;;1.42;0.10;;;11.30;41.70;;;;;;3569651;40;20789;-66
2021/04/06 06:21:46;;;;;;;3.60;0.30;;;11.30;39.80;;;;;;3548278;40;20396;-64
2021/04/06 06:24:22;;;;;;;1.75;0.10;;;;;;;;;;3566659;40;20382;-64
2021/04/06 06:26:48;;;;;;;1.92;0.10;;;;;;;;;;3545149;40;20471;-64
2021/04/06 06:29:18;;;;;;;0.85;0.10;;;;;;;;;;3545168;40;20667;-64
2021/04/06 06:31:45;;;;;;;2.65;0.15;;;;;;;;;;3546786;40;20420;-65
2021/04/06 06:34:25;;;;;;;1.20;0.10;;;;;;;;;;3544107;40;20378;-65
2021/04/06 06:37:04;;;;;;;0.55;0.10;;;;;;;;;;3541901;40;20664;-64
2021/04/06 06:39:31;;;;;;;0.90;0.10;;;;;;;;;;3544100;40;20405;-63
2021/04/06 06:41:58;;;;;;;0.40;0.10;;;;;;;;;;3545134;40;20393;-64
2021/04/06 06:44:25;;;;;;;2.70;0.30;;;;;;;;;;3536520;40;20430;-64
2021/04/06 06:47:01;;;;;;;0.97;0.10;;;;;;;;;;3545133;40;20395;-64
2021/04/06 06:49:30;;;;;;;1.67;0.20;;;;;;;;;;3543717;40;20395;-64
2021/04/06 06:51:56;;;;;;;0.50;0.17;;;;;;;;;;3543258;40;20412;-64
2021/04/06 06:54:34;;;;;;;1.30;0.20;;;;;;;;;;3541676;40;20633;-67
2021/04/06 06:57:06;;;;;;;1.50;0.10;;;;;;;;;;3545015;40;20391;-64
2021/04/06 06:59:36;;;;;;;0.40;0.10;;;;;;;;;;3565376;40;20364;-64
2021/04/06 07:02:16;;;;;;;0.40;0.13;;;;;;;;;;3564660;40;20745;-64
2021/04/06 07:04:43;;;;;;;1.00;0.20;;;;;;;;;;3566565;40;20743;-64
2021/04/06 07:07:09;;;;;;;2.00;0.30;;;;;;;;;;3571027;40;20421;-64
2021/04/06 07:09:36;;;;;;;0.98;0.20;;;;;;;;;;3548982;40;20785;-64
2021/04/06 07:12:03;;;;;;;0.90;0.10;;;;;;;;;;3556045;40;20422;-64
2021/04/06 07:14:31;;;;;;;1.80;0.10;;;;;;;;;;3566358;40;20417;-64
2021/04/06 07:16:59;;;;;;;1.73;0.10;;;;;;;;;;3566061;40;20383;-64
2021/04/06 07:19:25;;;;;;;2.10;0.20;;;;;;;;;;3559593;40;20397;-64
2021/04/06 07:21:53;;;;;;;0.60;0.10;;;;;;;;;;3556940;40;20670;-64
2021/04/06 07:24:20;;;;;;;1.10;0.10;;;;;;;;;;3573296;40;20377;-64
2021/04/06 07:26:47;;;;;;;0.95;0.20;;;;;;;;;;3548914;40;20452;-64
2021/04/06 07:29:13;;;;;;;1.48;0.20;;;;;;;;;;3566783;40;20368;-64
2021/04/06 07:31:40;;;;;;;0.88;0.20;;;;;;;;;;3570767;40;20396;-64
2021/04/06 07:34:08;;;;;;;1.45;0.10;;;;;;;;;;3570143;40;20397;-64
2021/04/06 07:36:34;;;;;;;0.55;0.10;;;;;;;;;;3564682;40;20391;-64
2021/04/06 07:39:01;;;;;;;0.50;0.20;;;;;;;;;;3563706;40;20408;-64
2021/04/06 07:41:28;;;;;;;1.05;0.10;;;;;;;;;;3572915;40;20393;-64
2021/04/06 07:43:57;;;;;;;3.20;0.20;;;11.40;39.20;;;;;;3573594;40;20395;-64
2021/04/06 07:46:40;;;;;;;0.30;0.10;;;13.10;30.60;;;;;;3575915;40;20427;-64
2021/04/06 07:49:08;;;;;;;2.30;0.32;;;13.20;29.90;;;;;;3575929;40;20379;-63
2021/04/06 07:51:39;;;;;;;0.55;0.20;;;;;;;;;;3569598;40;20714;-63
2021/04/06 07:54:08;;;;;;;0.68;0.20;;;13.20;30.00;;;;;;3569372;40;20421;-63
2021/04/06 07:56:50;;;;;;;1.17;0.30;;;;;;;;;;3576582;40;20395;-64
2021/04/06 07:59:35;;;;;;;2.33;0.30;;;;;;;;;;3577610;40;20749;-64
2021/04/06 08:02:27;;;;;;;1.25;0.20;;;13.40;31.50;;;;;;3574458;40;20377;-64
2021/04/06 08:04:54;;;;;;;0.50;0.13;;;;;;;;;;3578915;40;20649;-64
2021/04/06 08:07:27;;;;;;;0.38;0.10;;;;;;;;;;3577719;40;20861;-64
2021/04/06 08:09:54;;;;;;;1.35;0.20;;;;;;;;;;3577341;40;20394;-64
2021/04/06 08:12:21;;;;;;;2.03;0.28;;;;;;;;;;3576251;40;20419;-64
2021/04/06 08:14:49;;;;;;;0.30;0.20;;;;;;;;;;3577587;40;20431;-64
2021/04/06 08:17:34;;;;;;;0.70;0.15;;;;;;;;;;3583204;40;20401;-64
2021/04/06 08:20:02;;;;;;;1.35;0.20;;;;;;;;;;3582361;40;20422;-64
2021/04/06 08:22:29;;;;;;;2.00;0.30;;;;;;;;;;3579204;40;20398;-64
2021/04/06 08:25:29;;;;;;;1.73;0.37;;;;;;;;;;3582608;40;20391;-64
2021/04/06 08:27:55;;;;;;;3.20;0.30;;;;;;;;;;3577390;40;20477;-64
2021/04/06 08:30:25;;;;;;;1.70;0.40;;;;;;;;;;3577499;40;20388;-63
2021/04/06 08:33:12;;;;;;;0.80;0.20;;;;;;;;;;3582441;40;20378;-64
2021/04/06 08:35:57;;;;;;;1.10;0.17;;;;;;;;;;3570262;40;20468;-64
2021/04/06 08:38:43;;;;;;;0.63;0.22;;;;;;;;;;3578589;40;20368;-64
2021/04/06 08:41:12;;;;;;;1.90;0.30;;;;;;;;;;3578836;40;20471;-64
2021/04/06 08:43:40;;;;;;;1.80;0.10;;;;;;;;;;3577317;40;20387;-64
2021/04/06 08:46:07;;;;;;;5.57;0.30;;;;;;;;;;3578742;40;20395;-64
2021/04/06 08:48:51;;;;;;;1.70;0.28;;;14.00;28.40;;;;;;3577820;40;20388;-64
2021/04/06 08:51:19;;;;;;;2.22;0.20;;;14.70;26.90;;;;;;3577278;40;20489;-64
2021/04/06 08:53:47;;;;;;;2.80;0.20;;;14.70;26.50;;;;;;3571894;40;20395;-63
2021/04/06 08:56:13;;;;;;;1.20;0.10;;;14.70;26.10;;;;;;3571632;40;20774;-64
2021/04/06 08:58:40;;;;;;;1.17;0.30;;;14.80;26.10;;;;;;3577275;40;20478;-66
2021/04/06 09:01:06;;;;;;;1.92;0.15;;;14.80;25.90;;;;;;3578768;40;20465;-64
2021/04/06 09:03:32;;;;;;;1.60;0.20;;;;;;;;;;3579834;40;20406;-64
2021/04/06 09:06:05;;;;;;;2.15;0.20;;;;;;;;;;3577221;40;20379;-64
2021/04/06 09:08:46;;;;;;;0.33;0.10;;;;;;;;;;3578784;40;20379;-64
2021/04/06 09:11:13;;;;;;;0.52;0.10;;;14.80;26.30;;;;;;3577041;40;20391;-64
2021/04/06 09:13:39;;;;;;;1.30;0.30;;;15.00;26.30;;;;;;3577056;40;20380;-65
2021/04/06 09:16:05;;;;;;;0.30;0.13;;;;;;;;;;3576936;40;20411;-64
2021/04/06 09:18:35;;;;;;;1.02;0.10;;;;;;;;;;3583857;40;20394;-64
2021/04/06 09:21:08;;;;;;;0.53;0.17;;;15.40;25.90;;;;;;3580023;40;20465;-64
2021/04/06 09:23:35;;;;;;;0.50;0.20;;;15.40;25.10;;;;;;3575869;40;20689;-64
2021/04/06 09:26:12;;;;;;;0.90;0.28;;;15.40;26.70;;;;;;3576923;40;20461;-64
2021/04/06 09:28:39;;;;;;;1.50;0.20;;;;;;;;;;3583238;40;20759;-64
2021/04/06 09:31:06;;;;;;;1.40;0.20;;;15.60;25.40;;;;;;3576958;40;20493;-64
2021/04/06 09:33:32;;;;;;;2.20;0.30;;;15.80;24.80;;;;;;3575647;40;20392;-65
2021/04/06 09:35:57;;;;;;;1.95;0.30;;;15.80;24.50;;;;;;3580058;40;20380;-64
2021/04/06 09:38:25;;;;;;;2.20;0.20;;;15.80;24.30;;;;;;3577256;40;20399;-65
2021/04/06 09:40:52;;;;;;;1.75;0.20;;;15.80;24.50;;;;;;3567545;40;20408;-65
2021/04/06 09:43:19;;;;;;;0.20;0.10;;;15.80;24.70;;;;;;3576963;40;20775;-64
2021/04/06 09:45:47;;;;;;;3.05;0.40;;;15.80;22.70;;;;;;3573638;40;20368;-64
2021/04/06 09:48:14;;;;;;;2.40;0.50;;;15.80;23.60;;;;;;3579987;40;20424;-64
2021/04/06 09:50:54;;;;;;;1.05;0.28;;;15.80;23.00;;;;;;3570512;40;20526;-65
2021/04/06 09:53:20;;;;;;;0.70;0.10;;;15.80;22.70;;;;;;3575710;40;20391;-64
2021/04/06 09:55:47;;;;;;;0.28;0.10;;;15.80;23.30;;;;;;3575339;40;20411;-64
2021/04/06 09:58:14;;;;;;;1.83;0.20;;;15.90;22.80;;;;;;3575777;40;20757;-64
2021/04/06 10:00:44;;;;;;;1.02;0.10;;;15.90;22.90;;;;;;3578645;40;20372;-64
2021/04/06 10:03:12;;;;;;;0.45;0.20;;;16.00;22.70;;;;;;3582093;40;20386;-64
2021/04/06 10:05:42;;;;;;;0.90;0.35;;;16.00;25.00;;;;;;3574203;40;20382;-64
2021/04/06 10:08:09;;;;;;;0.90;0.20;;;;;;;;;;3574488;40;20827;-64
2021/04/06 10:10:35;;;;;;;1.23;0.20;;;;;;;;;;3577393;40;20419;-64
2021/04/06 10:13:03;;;;;;;1.70;0.10;;;16.10;23.60;;;;;;3575776;40;20400;-64
2021/04/06 10:15:31;;;;;;;0.80;0.20;;;16.30;22.00;;;;;;3576551;40;20465;-64
2021/04/06 10:18:07;;;;;;;1.17;0.20;;;16.30;22.70;;;;;;3576750;40;20390;-64
2021/04/06 10:20:38;;;;;;;0.70;0.20;;;16.20;22.60;;;;;;3576666;40;20376;-64
2021/04/06 10:23:04;;;;;;;0.85;0.20;;;16.20;21.80;;;;;;3579954;40;20495;-64
2021/04/06 10:25:35;;;;;;;0.70;0.10;;;16.20;22.20;;;;;;3579405;40;20395;-63
2021/04/06 10:28:04;;;;;;;1.95;0.30;;;16.20;21.40;;;;;;3583178;40;20365;-64
2021/04/06 10:30:36;;;;;;;1.33;0.32;;;16.30;24.90;;;;;;3576689;40;20384;-64
2021/04/06 10:33:06;;;;;;;2.72;0.40;;;16.40;22.00;;;;;;3573056;40;20714;-64
2021/04/06 10:35:35;;;;;;;2.20;0.40;;;16.50;22.00;;;;;;3586509;40;20374;-64
2021/04/06 10:38:03;;;;;;;0.73;0.20;;;16.50;23.30;;;;;;3575597;40;20793;-64
2021/04/06 10:40:36;;;;;;;0.63;0.20;;;16.50;22.00;;;;;;3575780;40;20392;-65
2021/04/06 10:43:06;;;;;;;0.70;0.20;;;16.70;22.00;;;;;;3575035;40;20372;-64
2021/04/06 10:45:34;;;;;;;0.47;0.20;;;;;;;;;;3583640;40;20447;-64
2021/04/06 10:48:09;;;;;;;0.60;0.10;;;;;;;;;;3569394;40;20383;-65
2021/04/06 10:50:36;;;;;;;3.17;0.20;;;;;;;;;;3572206;40;20405;-65
2021/04/06 10:53:23;;;;;;;1.65;0.25;;;16.70;22.30;;;;;;3565899;40;20378;-64
2021/04/06 10:55:53;;;;;;;2.03;0.38;;;17.30;21.40;;;;;;3563929;40;20374;-65
2021/04/06 10:58:25;;;;;;;0.75;0.20;;;17.30;22.20;;;;;;3565950;40;20433;-64
2021/04/06 11:01:02;;;;;;;0.20;0.10;;;17.30;21.50;;;;;;3563749;40;20368;-64
2021/04/06 11:03:49;;;;;;;1.73;0.13;;;17.20;21.30;;;;;;3564683;40;20461;-64
2021/04/06 11:06:22;;;;;;;0.20;0.10;;;17.20;21.60;;;;;;3564648;40;20378;-64
2021/04/06 11:08:50;;;;;;;1.83;0.23;;;17.10;21.80;;;;;;3567323;40;20378;-65
2021/04/06 11:11:23;;;;;;;0.80;0.13;;;17.20;23.40;;;;;;3563912;40;20395;-64
2021/04/06 11:13:49;;;;;;;1.30;0.20;;;17.30;22.10;;;;;;3565622;40;20469;-64
2021/04/06 11:16:16;;;;;;;1.00;0.20;;;17.30;23.20;;;;;;3565389;40;20414;-65
2021/04/06 11:18:43;;;;;;;0.60;0.40;;;17.40;22.30;;;;;;3566109;40;20381;-65
2021/04/06 11:21:09;;;;;;;1.38;0.20;;;17.40;22.90;;;;;;3557061;40;20471;-64
2021/04/06 11:23:36;;;;;;;1.38;0.20;;;;;;;;;;3568771;40;20459;-64
2021/04/06 11:26:02;;;;;;;0.98;0.20;;;17.70;27.70;;;;;;3566251;40;20386;-64
2021/04/06 11:28:28;;;;;;;1.00;0.30;;;17.60;22.60;;;;;;3556694;40;20509;-65
2021/04/06 11:30:54;;;;;;;2.30;0.20;;;;;;;;;;3567213;40;20408;-64
2021/04/06 11:33:20;;;;;;;1.88;0.32;;;;;;;;;;3565749;40;20389;-64
2021/04/06 11:35:47;;;;;;;2.90;0.30;;;;;;;;;;3565868;40;20735;-64
2021/04/06 11:38:15;;;;;;;1.20;0.20;;;;;;;;;;3567251;40;20390;-64
2021/04/06 11:40:41;;;;;;;0.70;0.10;;;;;;;;;;3566005;40;20768;-65
2021/04/06 11:43:07;;;;;;;0.60;0.20;;;;;;;;;;3569171;40;20382;-64
2021/04/06 11:45:34;;;;;;;2.20;0.30;;;;;;;;;;3557724;40;20405;-64
2021/04/06 11:48:00;;;;;;;0.47;0.20;;;18.00;20.10;;;;;;3568485;40;20396;-65
2021/04/06 11:50:26;;;;;;;1.80;0.30;;;17.90;22.20;;;;;;3562974;40;20411;-65
2021/04/06 11:52:53;;;;;;;0.80;0.22;;;17.70;23.10;;;;;;3576973;40;20379;-64
2021/04/06 11:55:19;;;;;;;0.40;0.30;;;18.00;20.50;;;;;;3576775;40;20428;-64
2021/04/06 11:57:45;;;;;;;0.70;0.13;;;18.10;20.20;;;;;;3575604;40;20392;-65
2021/04/06 12:00:13;;;;;;;0.57;0.13;;;17.90;22.30;;;;;;3576393;40;20417;-64
2021/04/06 12:02:39;;;;;;;1.20;0.30;;;17.80;20.50;;;;;;3576947;40;20443;-65
2021/04/06 12:05:06;;;;;;;0.57;0.20;;;;;;;;;;3576531;40;20400;-64
2021/04/06 12:07:32;;;;;;;1.48;0.20;;;17.60;22.00;;;;;;3577652;40;20442;-64
2021/04/06 12:10:00;;;;;;;0.70;0.20;;;17.10;21.30;;;;;;3577047;40;20497;-64
2021/04/06 12:12:27;;;;;;;1.80;0.20;;;16.80;23.30;;;;;;3576732;40;20850;-65
2021/04/06 12:14:53;;;;;;;1.90;0.30;;;16.70;22.50;;;;;;3577369;40;20423;-64
2021/04/06 12:17:19;;;;;;;1.38;0.30;;;16.80;22.30;;;;;;3577291;40;20404;-65
2021/04/06 12:19:45;;;;;;;2.58;0.40;;;17.20;21.20;;;;;;3580896;40;20388;-64
2021/04/06 12:22:11;;;;;;;0.33;0.20;;;17.60;22.70;;;;;;3577655;40;20468;-65
2021/04/06 12:24:37;;;;;;;1.60;0.20;;;;;;;;;;3577403;40;20660;-64
2021/04/06 12:27:05;;;;;;;0.68;0.30;;;;;;;;;;3577307;40;20388;-64
2021/04/06 12:29:31;;;;;;;0.75;0.20;;;18.00;24.00;;;;;;3576569;40;20443;-64
2021/04/06 12:31:57;;;;;;;1.52;0.13;;;17.70;22.40;;;;;;3577099;40;20399;-65
2021/04/06 12:34:23;;;;;;;1.27;0.17;;;17.50;24.00;;;;;;3574643;40;20461;-65
2021/04/06 12:36:50;;;;;;;1.02;0.30;;;17.00;22.20;;;;;;3576065;40;20415;-64
2021/04/06 12:39:16;;;;;;;0.50;0.20;;;16.50;24.50;;;;;;3577267;40;20386;-65
2021/04/06 12:41:42;;;;;;;2.30;0.40;;;;;;;;;;3581287;40;20631;-64
2021/04/06 12:44:09;;;;;;;0.90;0.30;;;16.50;24.90;;;;;;3575953;40;20408;-64
2021/04/06 12:46:35;;;;;;;1.63;0.30;;;16.20;25.00;;;;;;3572467;40;20406;-65
2021/04/06 12:49:01;;;;;;;1.80;0.47;;;16.30;24.50;;;;;;3577281;40;20395;-64
2021/04/06 12:51:28;;;;;;;3.13;0.30;;;;;;;;;;3575904;40;20797;-64
2021/04/06 12:53:54;;;;;;;1.55;0.45;;;;;;;;;;3581785;40;20379;-64
2021/04/06 12:56:20;;;;;;;1.30;0.20;;;15.30;24.00;;;;;;3577300;40;20753;-65
2021/04/06 12:58:46;;;;;;;1.95;0.20;;;15.30;24.40;;;;;;3577222;40;20383;-64
2021/04/06 13:01:13;;;;;;;0.60;0.20;;;15.30;24.30;;;;;;3577021;40;20411;-65
2021/04/06 13:03:39;;;;;;;0.60;0.20;;;;;;;;;;3577259;40;20400;-65
2021/04/06 13:06:06;;;;;;;1.60;0.20;;;;;;;;;;3576135;40;20392;-64
2021/04/06 13:08:32;;;;;;;0.80;0.10;;;;;;;;;;3577004;40;20416;-64
2021/04/06 13:10:58;;;;;;;1.60;0.20;;;;;;;;;;3573601;40;20662;-64
2021/04/06 13:13:25;;;;;;;0.63;0.10;;;;;;;;;;3573817;40;20753;-65
2021/04/06 13:15:52;;;;;;;1.30;0.20;;;;;;;;;;3576932;40;20387;-64
2021/04/06 13:18:19;;;;;;;2.40;0.15;;;;;;;;;;3577037;40;20420;-65
2021/04/06 13:20:46;;;;;;;1.50;0.50;;;;;;;;;;3578568;40;20378;-65
2021/04/06 13:23:12;;;;;;;2.70;0.30;;;;;;;;;;3572869;40;20411;-64
2021/04/06 13:25:39;;;;;;;0.43;0.17;;;;;;;;;;3576905;40;20423;-64
2021/04/06 13:28:05;;;;;;;0.73;0.20;;;;;;;;;;3580903;40;20390;-65
2021/04/06 13:30:32;;;;;;;3.67;0.40;;;;;;;;;;3579318;40;20402;-64
2021/04/06 13:32:58;;;;;;;0.85;0.20;;;;;;;;;;3574988;40;20374;-64
2021/04/06 13:35:27;;;;;;;2.17;0.30;;;;;;;;;;3572923;40;20376;-64
2021/04/06 13:37:54;;;;;;;3.92;0.60;;;;;;;;;;3576143;40;20769;-64
2021/04/06 13:40:21;;;;;;;1.58;0.60;;;;;;;;;;3580746;40;20501;-64
2021/04/06 13:42:48;;;;;;;2.17;0.50;;;;;;;;;;3576534;40;20376;-64
2021/04/06 13:45:15;;;;;;;2.08;0.30;;;;;;;;;;3571515;40;20375;-64
2021/04/06 13:47:41;;;;;;;0.90;0.30;;;;;;;;;;3572072;40;20416;-64
2021/04/06 13:50:09;;;;;;;0.85;0.20;;;;;;;;;;3582583;40;20411;-64
2021/04/06 13:52:36;;;;;;;0.98;0.30;;;;;;;;;;3576875;40;20395;-64
2021/04/06 13:55:06;;;;;;;2.90;0.30;;;;;;;;;;3578007;40;20396;-63
2021/04/06 13:57:32;;;;;;;1.65;0.30;;;;;;;;;;3571933;40;20381;-64
2021/04/06 13:59:58;;;;;;;1.30;0.30;;;;;;;;;;3574916;40;20384;-64
2021/04/06 14:02:24;;;;;;;3.47;0.30;;;;;;;;;;3571823;40;20407;-64
2021/04/06 14:04:50;;;;;;;1.40;0.30;;;;;;;;;;3576835;40;20741;-64
2021/04/06 14:07:17;;;;;;;2.67;0.40;;;;;;;;;;3570980;40;20472;-63
2021/04/06 14:09:44;;;;;;;1.35;0.20;;;;;;;;;;3578067;40;20384;-63